N864MC KSAN-PAJN
Flight info
| Callsign | N864MC |
|---|---|
| Flight time | N/A |
| Altitude | 43000 |
| Route | PADRZ2 EHF J5 FMG J92 LMT CVO HQM J501 TOU PRYCE Q902 LVD |
| Aircraft | C700/M-SBDGHM1RWXY/LB2 |
Departure
| Time | 2026-04-20 19:45 |
|---|---|
| Airport | San Diego International Airport (KSAN) |
Arrival
| Time | N/A |
|---|---|
| Airport | Juneau International Airport (PAJN) |
| Time | Latitude | Longitude | Altitude | Speed | Heading |
|---|---|---|---|---|---|
| 2026-04-20 19:29 | 32.73358 | -117.17900 | 20 ft | 0 kts | 184° |
| 2026-04-20 19:38 | 32.73365 | -117.17898 | 23 ft | 2 kts | 244° |
| 2026-04-20 19:38 | 32.73367 | -117.17893 | 21 ft | 0 kts | 285° |
| 2026-04-20 19:40 | 32.73367 | -117.17894 | 21 ft | 1 kts | 285° |
| 2026-04-20 19:40 | 32.73362 | -117.17934 | 22 ft | 10 kts | 237° |
| 2026-04-20 19:41 | 32.73274 | -117.17980 | 18 ft | 17 kts | 194° |
| 2026-04-20 19:41 | 32.73211 | -117.17898 | 16 ft | 15 kts | 107° |
| 2026-04-20 19:41 | 32.73181 | -117.17775 | 18 ft | 16 kts | 108° |
| 2026-04-20 19:41 | 32.73149 | -117.17645 | 17 ft | 18 kts | 107° |
| 2026-04-20 19:42 | 32.73103 | -117.17561 | 16 ft | 6 kts | 140° |
| 2026-04-20 19:42 | 32.73065 | -117.17534 | 18 ft | 7 kts | 163° |
| 2026-04-20 19:42 | 32.73023 | -117.17546 | 17 ft | 6 kts | 237° |
| 2026-04-20 19:42 | 32.73027 | -117.17609 | 16 ft | 9 kts | 283° |
| 2026-04-20 19:43 | 32.73037 | -117.17655 | 15 ft | 2 kts | 284° |
| 2026-04-20 19:44 | 32.73038 | -117.17656 | 15 ft | 3 kts | 285° |
| 2026-04-20 19:44 | 32.73125 | -117.18031 | 14 ft | 92 kts | 285° |
| 2026-04-20 19:44 | 32.73370 | -117.19084 | 36 ft | 162 kts | 287° |
| 2026-04-20 19:45 | 32.73753 | -117.20479 | 467 ft | 202 kts | 286° |
| 2026-04-20 19:45 | 32.74263 | -117.22253 | 976 ft | 226 kts | 294° |
| 2026-04-20 19:45 | 32.75092 | -117.23797 | 2112 ft | 223 kts | 307° |
| 2026-04-20 19:45 | 32.76067 | -117.25298 | 3265 ft | 240 kts | 306° |
| 2026-04-20 19:46 | 32.77089 | -117.27007 | 4134 ft | 267 kts | 303° |
| 2026-04-20 19:46 | 32.78161 | -117.28851 | 5462 ft | 273 kts | 303° |
| 2026-04-20 19:46 | 32.79275 | -117.30726 | 6838 ft | 280 kts | 304° |
| 2026-04-20 19:46 | 32.80449 | -117.32598 | 8147 ft | 286 kts | 306° |
| 2026-04-20 19:47 | 32.81665 | -117.34459 | 9467 ft | 291 kts | 306° |
| 2026-04-20 19:47 | 32.82907 | -117.36403 | 10600 ft | 305 kts | 305° |
| 2026-04-20 19:47 | 32.84246 | -117.38494 | 11503 ft | 323 kts | 306° |
| 2026-04-20 19:47 | 32.85623 | -117.40620 | 12898 ft | 326 kts | 305° |
| 2026-04-20 19:48 | 32.87020 | -117.42782 | 14119 ft | 333 kts | 304° |
| 2026-04-20 19:48 | 32.88441 | -117.44993 | 15237 ft | 339 kts | 304° |
| 2026-04-20 19:48 | 32.89858 | -117.47197 | 16323 ft | 345 kts | 304° |
| 2026-04-20 19:48 | 32.91332 | -117.49487 | 17418 ft | 351 kts | 304° |
| 2026-04-20 19:49 | 32.92832 | -117.51819 | 18480 ft | 358 kts | 304° |
| 2026-04-20 19:49 | 32.94354 | -117.54190 | 19435 ft | 362 kts | 304° |
| 2026-04-20 19:49 | 32.95894 | -117.56590 | 20392 ft | 367 kts | 304° |
| 2026-04-20 19:49 | 32.97453 | -117.59023 | 21334 ft | 371 kts | 304° |
| 2026-04-20 19:50 | 32.99035 | -117.61491 | 22229 ft | 376 kts | 304° |
| 2026-04-20 19:50 | 33.00619 | -117.63965 | 23106 ft | 381 kts | 304° |
| 2026-04-20 19:50 | 33.02239 | -117.66497 | 23935 ft | 386 kts | 304° |
| 2026-04-20 19:50 | 33.03881 | -117.69065 | 24705 ft | 390 kts | 304° |
| 2026-04-20 19:51 | 33.05534 | -117.71646 | 25474 ft | 394 kts | 305° |
| 2026-04-20 19:51 | 33.07445 | -117.74049 | 26210 ft | 403 kts | 315° |
| 2026-04-20 19:51 | 33.09573 | -117.76195 | 26900 ft | 408 kts | 316° |
| 2026-04-20 19:51 | 33.11742 | -117.78395 | 27609 ft | 412 kts | 316° |
| 2026-04-20 19:52 | 33.13938 | -117.80645 | 28310 ft | 417 kts | 316° |
| 2026-04-20 19:52 | 33.16158 | -117.82909 | 29006 ft | 421 kts | 316° |
| 2026-04-20 19:52 | 33.18402 | -117.85187 | 29703 ft | 426 kts | 316° |
| 2026-04-20 19:52 | 33.20703 | -117.87463 | 30345 ft | 431 kts | 317° |
| 2026-04-20 19:53 | 33.23038 | -117.89730 | 30953 ft | 434 kts | 317° |
| 2026-04-20 19:53 | 33.25376 | -117.92032 | 31530 ft | 437 kts | 316° |
| 2026-04-20 19:53 | 33.27714 | -117.94324 | 32084 ft | 441 kts | 317° |
| 2026-04-20 19:53 | 33.30106 | -117.96649 | 32643 ft | 444 kts | 316° |
| 2026-04-20 19:54 | 33.32518 | -117.98998 | 33189 ft | 447 kts | 316° |